sensor_id;sensor_type;location;lat;lon;timestamp;P1;durP1;ratioP1;P2;durP2;ratioP2
8927;SDS011;4499;48.304;11.902;2023-04-24T00:02:19;5.10;;;2.03;;
8927;SDS011;4499;48.304;11.902;2023-04-24T00:04:48;3.40;;;1.90;;
8927;SDS011;4499;48.304;11.902;2023-04-24T00:07:16;4.17;;;2.23;;
8927;SDS011;4499;48.304;11.902;2023-04-24T00:09:47;2.70;;;1.90;;
8927;SDS011;4499;48.304;11.902;2023-04-24T00:12:15;3.90;;;2.10;;
8927;SDS011;4499;48.304;11.902;2023-04-24T00:14:43;3.53;;;2.37;;
8927;SDS011;4499;48.304;11.902;2023-04-24T00:17:11;4.13;;;2.03;;
8927;SDS011;4499;48.304;11.902;2023-04-24T00:19:39;3.03;;;1.80;;
8927;SDS011;4499;48.304;11.902;2023-04-24T00:22:08;2.63;;;2.07;;
8927;SDS011;4499;48.304;11.902;2023-04-24T00:24:37;2.50;;;2.00;;
8927;SDS011;4499;48.304;11.902;2023-04-24T00:27:06;3.83;;;2.00;;
8927;SDS011;4499;48.304;11.902;2023-04-24T00:29:34;1.80;;;1.70;;
8927;SDS011;4499;48.304;11.902;2023-04-24T00:32:02;3.70;;;1.90;;
8927;SDS011;4499;48.304;11.902;2023-04-24T00:34:31;2.23;;;1.80;;
8927;SDS011;4499;48.304;11.902;2023-04-24T00:36:59;2.30;;;1.70;;
8927;SDS011;4499;48.304;11.902;2023-04-24T00:39:27;2.77;;;2.00;;
8927;SDS011;4499;48.304;11.902;2023-04-24T00:41:55;2.37;;;1.70;;
8927;SDS011;4499;48.304;11.902;2023-04-24T00:44:25;2.83;;;1.80;;
8927;SDS011;4499;48.304;11.902;2023-04-24T00:46:53;2.10;;;1.77;;
8927;SDS011;4499;48.304;11.902;2023-04-24T00:49:22;3.50;;;2.00;;
8927;SDS011;4499;48.304;11.902;2023-04-24T00:51:50;2.57;;;2.37;;
8927;SDS011;4499;48.304;11.902;2023-04-24T00:54:18;2.83;;;1.80;;
8927;SDS011;4499;48.304;11.902;2023-04-24T00:56:46;1.80;;;1.70;;
8927;SDS011;4499;48.304;11.902;2023-04-24T00:59:15;2.13;;;1.80;;
8927;SDS011;4499;48.304;11.902;2023-04-24T01:01:45;2.77;;;1.50;;
8927;SDS011;4499;48.304;11.902;2023-04-24T01:04:13;3.17;;;1.60;;
8927;SDS011;4499;48.304;11.902;2023-04-24T01:06:44;1.93;;;1.63;;
8927;SDS011;4499;48.304;11.902;2023-04-24T01:09:13;2.43;;;1.50;;
8927;SDS011;4499;48.304;11.902;2023-04-24T01:11:42;2.60;;;1.63;;
8927;SDS011;4499;48.304;11.902;2023-04-24T01:14:10;3.57;;;1.70;;
8927;SDS011;4499;48.304;11.902;2023-04-24T01:16:38;1.90;;;1.70;;
8927;SDS011;4499;48.304;11.902;2023-04-24T01:19:09;3.27;;;1.60;;
8927;SDS011;4499;48.304;11.902;2023-04-24T01:21:38;1.97;;;1.70;;
8927;SDS011;4499;48.304;11.902;2023-04-24T01:24:08;3.00;;;1.90;;
8927;SDS011;4499;48.304;11.902;2023-04-24T01:26:36;2.97;;;1.63;;
8927;SDS011;4499;48.304;11.902;2023-04-24T01:29:04;4.40;;;1.70;;
8927;SDS011;4499;48.304;11.902;2023-04-24T01:31:32;3.23;;;1.67;;
8927;SDS011;4499;48.304;11.902;2023-04-24T01:34:01;1.60;;;1.50;;
8927;SDS011;4499;48.304;11.902;2023-04-24T01:36:40;3.43;;;1.60;;
8927;SDS011;4499;48.304;11.902;2023-04-24T01:39:10;1.60;;;1.50;;
8927;SDS011;4499;48.304;11.902;2023-04-24T01:41:38;2.37;;;1.50;;
8927;SDS011;4499;48.304;11.902;2023-04-24T01:44:06;2.23;;;1.40;;
8927;SDS011;4499;48.304;11.902;2023-04-24T01:46:35;2.50;;;1.50;;
8927;SDS011;4499;48.304;11.902;2023-04-24T01:49:03;2.13;;;1.50;;
8927;SDS011;4499;48.304;11.902;2023-04-24T01:51:31;1.43;;;1.33;;
8927;SDS011;4499;48.304;11.902;2023-04-24T01:54:01;1.77;;;1.30;;
8927;SDS011;4499;48.304;11.902;2023-04-24T01:56:29;2.50;;;1.37;;
8927;SDS011;4499;48.304;11.902;2023-04-24T01:58:58;1.90;;;1.13;;
8927;SDS011;4499;48.304;11.902;2023-04-24T02:01:31;1.17;;;0.97;;
8927;SDS011;4499;48.304;11.902;2023-04-24T02:04:02;2.00;;;1.10;;
8927;SDS011;4499;48.304;11.902;2023-04-24T02:06:31;1.40;;;1.23;;
8927;SDS011;4499;48.304;11.902;2023-04-24T02:08:59;1.73;;;1.23;;
8927;SDS011;4499;48.304;11.902;2023-04-24T02:11:29;1.20;;;1.00;;
8927;SDS011;4499;48.304;11.902;2023-04-24T02:13:57;1.17;;;1.00;;
8927;SDS011;4499;48.304;11.902;2023-04-24T02:16:25;1.03;;;1.03;;
8927;SDS011;4499;48.304;11.902;2023-04-24T02:18:56;1.97;;;0.87;;
8927;SDS011;4499;48.304;11.902;2023-04-24T02:21:24;1.00;;;0.83;;
8927;SDS011;4499;48.304;11.902;2023-04-24T02:23:53;1.33;;;1.00;;
8927;SDS011;4499;48.304;11.902;2023-04-24T02:26:21;2.23;;;0.90;;
8927;SDS011;4499;48.304;11.902;2023-04-24T02:28:51;1.27;;;1.00;;
8927;SDS011;4499;48.304;11.902;2023-04-24T02:31:19;3.13;;;0.87;;
8927;SDS011;4499;48.304;11.902;2023-04-24T02:33:47;1.13;;;1.00;;
8927;SDS011;4499;48.304;11.902;2023-04-24T02:36:16;1.00;;;1.00;;
8927;SDS011;4499;48.304;11.902;2023-04-24T02:38:44;1.80;;;1.07;;
8927;SDS011;4499;48.304;11.902;2023-04-24T02:41:12;1.73;;;0.70;;
8927;SDS011;4499;48.304;11.902;2023-04-24T02:43:40;1.40;;;0.97;;
8927;SDS011;4499;48.304;11.902;2023-04-24T02:46:10;1.00;;;0.90;;
8927;SDS011;4499;48.304;11.902;2023-04-24T02:48:38;2.53;;;0.83;;
8927;SDS011;4499;48.304;11.902;2023-04-24T02:51:06;1.90;;;1.00;;
8927;SDS011;4499;48.304;11.902;2023-04-24T02:53:34;1.00;;;0.73;;
8927;SDS011;4499;48.304;11.902;2023-04-24T02:56:02;1.53;;;1.00;;
8927;SDS011;4499;48.304;11.902;2023-04-24T02:58:30;0.97;;;0.87;;
8927;SDS011;4499;48.304;11.902;2023-04-24T03:00:58;1.23;;;0.97;;
8927;SDS011;4499;48.304;11.902;2023-04-24T03:03:28;1.63;;;1.00;;
8927;SDS011;4499;48.304;11.902;2023-04-24T03:05:57;0.93;;;0.90;;
8927;SDS011;4499;48.304;11.902;2023-04-24T03:08:25;1.50;;;0.90;;
8927;SDS011;4499;48.304;11.902;2023-04-24T03:10:53;0.80;;;0.80;;
8927;SDS011;4499;48.304;11.902;2023-04-24T03:13:21;0.80;;;0.70;;
8927;SDS011;4499;48.304;11.902;2023-04-24T03:15:49;1.40;;;0.90;;
8927;SDS011;4499;48.304;11.902;2023-04-24T03:18:17;1.30;;;1.00;;
8927;SDS011;4499;48.304;11.902;2023-04-24T03:20:47;1.37;;;0.70;;
8927;SDS011;4499;48.304;11.902;2023-04-24T03:23:15;1.10;;;0.93;;
8927;SDS011;4499;48.304;11.902;2023-04-24T03:25:43;0.70;;;0.70;;
8927;SDS011;4499;48.304;11.902;2023-04-24T03:28:11;1.80;;;1.00;;
8927;SDS011;4499;48.304;11.902;2023-04-24T03:30:39;1.30;;;0.93;;
8927;SDS011;4499;48.304;11.902;2023-04-24T03:33:07;1.80;;;1.00;;
8927;SDS011;4499;48.304;11.902;2023-04-24T03:35:36;1.20;;;0.90;;
8927;SDS011;4499;48.304;11.902;2023-04-24T03:38:05;1.63;;;1.10;;
8927;SDS011;4499;48.304;11.902;2023-04-24T03:40:33;1.17;;;1.03;;
8927;SDS011;4499;48.304;11.902;2023-04-24T03:43:02;1.33;;;0.80;;
8927;SDS011;4499;48.304;11.902;2023-04-24T03:45:30;1.37;;;0.90;;
8927;SDS011;4499;48.304;11.902;2023-04-24T03:47:58;1.10;;;0.87;;
8927;SDS011;4499;48.304;11.902;2023-04-24T03:50:26;1.10;;;0.97;;
8927;SDS011;4499;48.304;11.902;2023-04-24T03:52:55;1.03;;;1.00;;
8927;SDS011;4499;48.304;11.902;2023-04-24T03:55:24;2.10;;;1.03;;
8927;SDS011;4499;48.304;11.902;2023-04-24T03:57:52;2.73;;;1.00;;
8927;SDS011;4499;48.304;11.902;2023-04-24T04:00:21;3.27;;;0.93;;
8927;SDS011;4499;48.304;11.902;2023-04-24T04:02:49;2.13;;;1.00;;
8927;SDS011;4499;48.304;11.902;2023-04-24T04:05:17;1.43;;;1.10;;
8927;SDS011;4499;48.304;11.902;2023-04-24T04:07:46;2.37;;;1.00;;
8927;SDS011;4499;48.304;11.902;2023-04-24T04:10:14;1.70;;;1.10;;
8927;SDS011;4499;48.304;11.902;2023-04-24T04:12:44;1.50;;;1.13;;
8927;SDS011;4499;48.304;11.902;2023-04-24T04:15:12;1.50;;;1.20;;
8927;SDS011;4499;48.304;11.902;2023-04-24T04:17:40;1.13;;;0.93;;
8927;SDS011;4499;48.304;11.902;2023-04-24T04:20:09;1.57;;;1.00;;
8927;SDS011;4499;48.304;11.902;2023-04-24T04:22:38;1.20;;;0.90;;
8927;SDS011;4499;48.304;11.902;2023-04-24T04:25:09;1.00;;;0.90;;
8927;SDS011;4499;48.304;11.902;2023-04-24T04:27:39;1.70;;;1.17;;
8927;SDS011;4499;48.304;11.902;2023-04-24T04:30:09;3.67;;;1.30;;
8927;SDS011;4499;48.304;11.902;2023-04-24T04:32:37;1.70;;;1.20;;
8927;SDS011;4499;48.304;11.902;2023-04-24T04:35:06;2.93;;;1.30;;
8927;SDS011;4499;48.304;11.902;2023-04-24T04:37:35;2.50;;;1.30;;
8927;SDS011;4499;48.304;11.902;2023-04-24T04:40:04;1.50;;;1.10;;
8927;SDS011;4499;48.304;11.902;2023-04-24T04:42:34;2.50;;;1.40;;
8927;SDS011;4499;48.304;11.902;2023-04-24T04:45:02;1.90;;;1.27;;
8927;SDS011;4499;48.304;11.902;2023-04-24T04:47:32;2.70;;;1.50;;
8927;SDS011;4499;48.304;11.902;2023-04-24T04:50:00;3.23;;;1.40;;
8927;SDS011;4499;48.304;11.902;2023-04-24T04:52:30;2.73;;;1.57;;
8927;SDS011;4499;48.304;11.902;2023-04-24T04:54:58;1.60;;;1.30;;
8927;SDS011;4499;48.304;11.902;2023-04-24T04:57:26;4.60;;;1.37;;
8927;SDS011;4499;48.304;11.902;2023-04-24T04:59:54;1.97;;;1.30;;
8927;SDS011;4499;48.304;11.902;2023-04-24T05:02:22;2.97;;;1.40;;
8927;SDS011;4499;48.304;11.902;2023-04-24T05:04:51;1.93;;;1.30;;
8927;SDS011;4499;48.304;11.902;2023-04-24T05:07:20;2.90;;;1.27;;
8927;SDS011;4499;48.304;11.902;2023-04-24T05:09:48;2.20;;;1.20;;
8927;SDS011;4499;48.304;11.902;2023-04-24T05:12:17;2.50;;;1.20;;
8927;SDS011;4499;48.304;11.902;2023-04-24T05:14:46;4.83;;;1.40;;
8927;SDS011;4499;48.304;11.902;2023-04-24T05:17:14;1.90;;;1.13;;
8927;SDS011;4499;48.304;11.902;2023-04-24T05:19:42;1.30;;;1.10;;
8927;SDS011;4499;48.304;11.902;2023-04-24T05:22:13;2.20;;;1.50;;
8927;SDS011;4499;48.304;11.902;2023-04-24T05:24:41;1.37;;;1.20;;
8927;SDS011;4499;48.304;11.902;2023-04-24T05:27:09;1.20;;;1.10;;
8927;SDS011;4499;48.304;11.902;2023-04-24T05:29:37;1.20;;;1.00;;
8927;SDS011;4499;48.304;11.902;2023-04-24T05:32:05;0.90;;;0.90;;
8927;SDS011;4499;48.304;11.902;2023-04-24T05:34:34;1.83;;;1.10;;
8927;SDS011;4499;48.304;11.902;2023-04-24T05:37:03;1.13;;;0.90;;
8927;SDS011;4499;48.304;11.902;2023-04-24T05:39:35;1.33;;;0.97;;
8927;SDS011;4499;48.304;11.902;2023-04-24T05:42:04;1.17;;;1.03;;
8927;SDS011;4499;48.304;11.902;2023-04-24T05:44:32;2.30;;;1.10;;
8927;SDS011;4499;48.304;11.902;2023-04-24T05:47:00;3.00;;;1.13;;
8927;SDS011;4499;48.304;11.902;2023-04-24T05:49:28;2.00;;;1.10;;
8927;SDS011;4499;48.304;11.902;2023-04-24T05:51:56;2.37;;;1.30;;
8927;SDS011;4499;48.304;11.902;2023-04-24T05:54:24;2.07;;;1.00;;
8927;SDS011;4499;48.304;11.902;2023-04-24T05:56:54;2.13;;;1.27;;
8927;SDS011;4499;48.304;11.902;2023-04-24T05:59:22;4.50;;;1.00;;
8927;SDS011;4499;48.304;11.902;2023-04-24T06:01:50;1.67;;;1.10;;
8927;SDS011;4499;48.304;11.902;2023-04-24T06:04:18;2.47;;;1.20;;
8927;SDS011;4499;48.304;11.902;2023-04-24T06:06:47;2.30;;;1.20;;
8927;SDS011;4499;48.304;11.902;2023-04-24T06:09:17;1.70;;;1.07;;
8927;SDS011;4499;48.304;11.902;2023-04-24T06:11:45;1.37;;;1.00;;
8927;SDS011;4499;48.304;11.902;2023-04-24T06:14:14;1.20;;;0.90;;
8927;SDS011;4499;48.304;11.902;2023-04-24T06:16:42;1.90;;;0.87;;
8927;SDS011;4499;48.304;11.902;2023-04-24T06:19:11;1.23;;;1.00;;
8927;SDS011;4499;48.304;11.902;2023-04-24T06:21:39;1.37;;;0.93;;
8927;SDS011;4499;48.304;11.902;2023-04-24T06:24:08;2.10;;;0.93;;
8927;SDS011;4499;48.304;11.902;2023-04-24T06:26:36;1.47;;;0.90;;
8927;SDS011;4499;48.304;11.902;2023-04-24T06:29:04;1.63;;;1.00;;
8927;SDS011;4499;48.304;11.902;2023-04-24T06:31:34;1.87;;;0.97;;
8927;SDS011;4499;48.304;11.902;2023-04-24T06:34:03;2.67;;;1.00;;
8927;SDS011;4499;48.304;11.902;2023-04-24T06:36:31;1.17;;;0.60;;
8927;SDS011;4499;48.304;11.902;2023-04-24T06:39:01;0.60;;;0.60;;
8927;SDS011;4499;48.304;11.902;2023-04-24T06:41:29;0.73;;;0.70;;
8927;SDS011;4499;48.304;11.902;2023-04-24T06:43:57;3.80;;;0.80;;
8927;SDS011;4499;48.304;11.902;2023-04-24T06:46:25;0.87;;;0.87;;
8927;SDS011;4499;48.304;11.902;2023-04-24T06:48:55;1.43;;;1.00;;
8927;SDS011;4499;48.304;11.902;2023-04-24T06:51:23;1.13;;;0.60;;
8927;SDS011;4499;48.304;11.902;2023-04-24T06:53:52;2.33;;;0.80;;
8927;SDS011;4499;48.304;11.902;2023-04-24T06:56:22;1.20;;;1.10;;
8927;SDS011;4499;48.304;11.902;2023-04-24T06:58:50;0.87;;;0.73;;
8927;SDS011;4499;48.304;11.902;2023-04-24T07:01:19;0.97;;;0.80;;
8927;SDS011;4499;48.304;11.902;2023-04-24T07:03:47;2.83;;;0.90;;
8927;SDS011;4499;48.304;11.902;2023-04-24T07:06:17;1.10;;;1.00;;
8927;SDS011;4499;48.304;11.902;2023-04-24T07:08:48;1.67;;;0.80;;
8927;SDS011;4499;48.304;11.902;2023-04-24T07:11:17;2.40;;;0.80;;
8927;SDS011;4499;48.304;11.902;2023-04-24T07:13:45;2.53;;;1.30;;
8927;SDS011;4499;48.304;11.902;2023-04-24T07:16:13;0.77;;;0.70;;
8927;SDS011;4499;48.304;11.902;2023-04-24T07:18:41;2.03;;;0.70;;
8927;SDS011;4499;48.304;11.902;2023-04-24T07:21:09;1.37;;;0.90;;
8927;SDS011;4499;48.304;11.902;2023-04-24T07:23:39;1.77;;;0.67;;
8927;SDS011;4499;48.304;11.902;2023-04-24T07:26:08;1.30;;;0.80;;
8927;SDS011;4499;48.304;11.902;2023-04-24T07:28:36;2.10;;;0.80;;
8927;SDS011;4499;48.304;11.902;2023-04-24T07:31:04;1.00;;;0.80;;
8927;SDS011;4499;48.304;11.902;2023-04-24T07:33:32;2.13;;;0.90;;
8927;SDS011;4499;48.304;11.902;2023-04-24T07:36:02;0.93;;;0.70;;
8927;SDS011;4499;48.304;11.902;2023-04-24T07:38:31;0.83;;;0.60;;
8927;SDS011;4499;48.304;11.902;2023-04-24T07:41:00;0.70;;;0.63;;
8927;SDS011;4499;48.304;11.902;2023-04-24T07:43:28;1.07;;;0.53;;
8927;SDS011;4499;48.304;11.902;2023-04-24T07:45:56;1.43;;;0.77;;
8927;SDS011;4499;48.304;11.902;2023-04-24T07:48:25;0.80;;;0.53;;
8927;SDS011;4499;48.304;11.902;2023-04-24T07:50:53;2.47;;;0.53;;
8927;SDS011;4499;48.304;11.902;2023-04-24T07:53:21;2.47;;;0.60;;
8927;SDS011;4499;48.304;11.902;2023-04-24T07:55:49;2.50;;;0.53;;
8927;SDS011;4499;48.304;11.902;2023-04-24T07:58:19;0.90;;;0.60;;
8927;SDS011;4499;48.304;11.902;2023-04-24T08:00:47;1.13;;;0.50;;
8927;SDS011;4499;48.304;11.902;2023-04-24T08:03:15;2.40;;;0.50;;
8927;SDS011;4499;48.304;11.902;2023-04-24T08:05:45;0.50;;;0.43;;
8927;SDS011;4499;48.304;11.902;2023-04-24T08:08:14;1.33;;;0.57;;
8927;SDS011;4499;48.304;11.902;2023-04-24T08:10:42;0.40;;;0.40;;
8927;SDS011;4499;48.304;11.902;2023-04-24T08:13:10;0.50;;;0.50;;
8927;SDS011;4499;48.304;11.902;2023-04-24T08:15:40;0.83;;;0.40;;
8927;SDS011;4499;48.304;11.902;2023-04-24T08:18:08;0.93;;;0.60;;
8927;SDS011;4499;48.304;11.902;2023-04-24T08:20:38;0.57;;;0.50;;
8927;SDS011;4499;48.304;11.902;2023-04-24T08:23:06;0.73;;;0.40;;
8927;SDS011;4499;48.304;11.902;2023-04-24T08:25:34;2.03;;;0.60;;
8927;SDS011;4499;48.304;11.902;2023-04-24T08:28:02;0.50;;;0.50;;
8927;SDS011;4499;48.304;11.902;2023-04-24T08:30:31;0.47;;;0.40;;
8927;SDS011;4499;48.304;11.902;2023-04-24T08:33:00;0.97;;;0.57;;
8927;SDS011;4499;48.304;11.902;2023-04-24T08:35:28;0.73;;;0.50;;
8927;SDS011;4499;48.304;11.902;2023-04-24T08:37:56;1.43;;;0.63;;
8927;SDS011;4499;48.304;11.902;2023-04-24T08:40:27;0.80;;;0.50;;
8927;SDS011;4499;48.304;11.902;2023-04-24T08:42:56;0.73;;;0.70;;
8927;SDS011;4499;48.304;11.902;2023-04-24T08:45:24;1.23;;;0.50;;
8927;SDS011;4499;48.304;11.902;2023-04-24T08:47:52;1.87;;;0.67;;
8927;SDS011;4499;48.304;11.902;2023-04-24T08:50:22;1.40;;;0.50;;
8927;SDS011;4499;48.304;11.902;2023-04-24T08:52:52;1.97;;;0.80;;
8927;SDS011;4499;48.304;11.902;2023-04-24T08:55:21;0.97;;;0.83;;
8927;SDS011;4499;48.304;11.902;2023-04-24T08:57:50;0.87;;;0.63;;
8927;SDS011;4499;48.304;11.902;2023-04-24T09:00:20;2.77;;;0.67;;
8927;SDS011;4499;48.304;11.902;2023-04-24T09:02:49;1.47;;;0.90;;
8927;SDS011;4499;48.304;11.902;2023-04-24T09:05:21;2.33;;;1.30;;
8927;SDS011;4499;48.304;11.902;2023-04-24T09:07:54;1.80;;;1.30;;
8927;SDS011;4499;48.304;11.902;2023-04-24T09:10:24;1.70;;;1.40;;
8927;SDS011;4499;48.304;11.902;2023-04-24T09:12:56;3.53;;;1.20;;
8927;SDS011;4499;48.304;11.902;2023-04-24T09:15:28;3.03;;;1.60;;
8927;SDS011;4499;48.304;11.902;2023-04-24T09:17:57;1.40;;;1.30;;
8927;SDS011;4499;48.304;11.902;2023-04-24T09:20:26;5.53;;;1.60;;
8927;SDS011;4499;48.304;11.902;2023-04-24T09:22:55;2.20;;;1.80;;
8927;SDS011;4499;48.304;11.902;2023-04-24T09:25:25;2.30;;;1.40;;
8927;SDS011;4499;48.304;11.902;2023-04-24T09:28:00;2.40;;;1.20;;
8927;SDS011;4499;48.304;11.902;2023-04-24T09:30:29;1.30;;;1.20;;
8927;SDS011;4499;48.304;11.902;2023-04-24T09:33:10;2.47;;;1.20;;
8927;SDS011;4499;48.304;11.902;2023-04-24T09:35:41;1.97;;;1.77;;
8927;SDS011;4499;48.304;11.902;2023-04-24T09:38:10;7.60;;;2.60;;
8927;SDS011;4499;48.304;11.902;2023-04-24T09:40:38;3.67;;;1.90;;
8927;SDS011;4499;48.304;11.902;2023-04-24T09:43:10;3.93;;;1.70;;
8927;SDS011;4499;48.304;11.902;2023-04-24T09:45:39;2.57;;;1.90;;
8927;SDS011;4499;48.304;11.902;2023-04-24T09:48:08;3.73;;;1.93;;
8927;SDS011;4499;48.304;11.902;2023-04-24T09:50:37;3.97;;;2.40;;
8927;SDS011;4499;48.304;11.902;2023-04-24T09:53:07;2.73;;;1.20;;
8927;SDS011;4499;48.304;11.902;2023-04-24T09:55:38;1.73;;;1.43;;
8927;SDS011;4499;48.304;11.902;2023-04-24T09:58:07;3.23;;;1.30;;
8927;SDS011;4499;48.304;11.902;2023-04-24T10:00:36;3.03;;;1.30;;
8927;SDS011;4499;48.304;11.902;2023-04-24T10:03:04;1.30;;;1.20;;
8927;SDS011;4499;48.304;11.902;2023-04-24T10:05:33;0.93;;;0.93;;
8927;SDS011;4499;48.304;11.902;2023-04-24T10:08:03;3.23;;;1.20;;
8927;SDS011;4499;48.304;11.902;2023-04-24T10:10:34;1.47;;;1.20;;
8927;SDS011;4499;48.304;11.902;2023-04-24T10:13:05;1.03;;;0.97;;
8927;SDS011;4499;48.304;11.902;2023-04-24T10:15:36;1.00;;;0.90;;
8927;SDS011;4499;48.304;11.902;2023-04-24T10:18:05;1.10;;;1.00;;
8927;SDS011;4499;48.304;11.902;2023-04-24T10:20:34;1.33;;;1.10;;
8927;SDS011;4499;48.304;11.902;2023-04-24T10:23:03;3.50;;;1.27;;
8927;SDS011;4499;48.304;11.902;2023-04-24T10:25:34;1.07;;;0.93;;
8927;SDS011;4499;48.304;11.902;2023-04-24T10:28:03;2.13;;;1.30;;
8927;SDS011;4499;48.304;11.902;2023-04-24T10:30:34;1.33;;;1.23;;
8927;SDS011;4499;48.304;11.902;2023-04-24T10:33:02;1.87;;;1.20;;
8927;SDS011;4499;48.304;11.902;2023-04-24T10:35:32;2.70;;;1.27;;
8927;SDS011;4499;48.304;11.902;2023-04-24T10:38:03;2.67;;;1.80;;
8927;SDS011;4499;48.304;11.902;2023-04-24T10:40:35;3.13;;;1.40;;
8927;SDS011;4499;48.304;11.902;2023-04-24T10:43:04;1.10;;;1.10;;
8927;SDS011;4499;48.304;11.902;2023-04-24T10:45:34;1.70;;;1.00;;
8927;SDS011;4499;48.304;11.902;2023-04-24T10:48:04;1.60;;;1.30;;
8927;SDS011;4499;48.304;11.902;2023-04-24T10:50:44;2.07;;;1.23;;
8927;SDS011;4499;48.304;11.902;2023-04-24T10:53:15;3.80;;;1.43;;
8927;SDS011;4499;48.304;11.902;2023-04-24T10:55:47;1.70;;;1.40;;
8927;SDS011;4499;48.304;11.902;2023-04-24T10:58:16;2.27;;;1.70;;
8927;SDS011;4499;48.304;11.902;2023-04-24T11:00:55;1.63;;;1.10;;
8927;SDS011;4499;48.304;11.902;2023-04-24T11:03:26;1.87;;;1.30;;
8927;SDS011;4499;48.304;11.902;2023-04-24T11:05:57;3.30;;;1.40;;
8927;SDS011;4499;48.304;11.902;2023-04-24T11:08:28;2.83;;;1.10;;
8927;SDS011;4499;48.304;11.902;2023-04-24T11:11:00;2.30;;;1.60;;
8927;SDS011;4499;48.304;11.902;2023-04-24T11:16:31;4.80;;;2.23;;
8927;SDS011;4499;48.304;11.902;2023-04-24T11:19:01;2.30;;;1.43;;
8927;SDS011;4499;48.304;11.902;2023-04-24T11:21:31;5.43;;;2.20;;
8927;SDS011;4499;48.304;11.902;2023-04-24T11:26:54;4.53;;;2.37;;
8927;SDS011;4499;48.304;11.902;2023-04-24T11:29:38;8.00;;;5.77;;
8927;SDS011;4499;48.304;11.902;2023-04-24T11:32:17;4.47;;;2.47;;
8927;SDS011;4499;48.304;11.902;2023-04-24T11:34:47;3.00;;;1.10;;
8927;SDS011;4499;48.304;11.902;2023-04-24T11:37:18;0.90;;;0.80;;
8927;SDS011;4499;48.304;11.902;2023-04-24T11:39:46;1.33;;;1.20;;
8927;SDS011;4499;48.304;11.902;2023-04-24T11:42:19;1.20;;;1.00;;
8927;SDS011;4499;48.304;11.902;2023-04-24T11:44:49;3.30;;;1.40;;
8927;SDS011;4499;48.304;11.902;2023-04-24T11:47:17;8.97;;;3.37;;
8927;SDS011;4499;48.304;11.902;2023-04-24T11:49:45;0.80;;;0.80;;
8927;SDS011;4499;48.304;11.902;2023-04-24T11:52:15;3.30;;;1.33;;
8927;SDS011;4499;48.304;11.902;2023-04-24T11:54:48;2.37;;;0.77;;
8927;SDS011;4499;48.304;11.902;2023-04-24T11:57:20;0.80;;;0.80;;
8927;SDS011;4499;48.304;11.902;2023-04-24T11:59:48;1.90;;;0.73;;
8927;SDS011;4499;48.304;11.902;2023-04-24T12:02:20;0.73;;;0.73;;
8927;SDS011;4499;48.304;11.902;2023-04-24T12:04:49;1.43;;;1.00;;
8927;SDS011;4499;48.304;11.902;2023-04-24T12:07:18;1.73;;;1.00;;
8927;SDS011;4499;48.304;11.902;2023-04-24T12:09:46;1.73;;;0.97;;
8927;SDS011;4499;48.304;11.902;2023-04-24T12:12:18;0.87;;;0.80;;
8927;SDS011;4499;48.304;11.902;2023-04-24T12:14:47;1.70;;;1.00;;
8927;SDS011;4499;48.304;11.902;2023-04-24T12:17:16;2.10;;;1.00;;
8927;SDS011;4499;48.304;11.902;2023-04-24T12:19:45;1.40;;;1.07;;
8927;SDS011;4499;48.304;11.902;2023-04-24T12:22:14;3.03;;;1.40;;
8927;SDS011;4499;48.304;11.902;2023-04-24T12:24:55;1.40;;;1.10;;
8927;SDS011;4499;48.304;11.902;2023-04-24T12:27:25;1.70;;;1.47;;
8927;SDS011;4499;48.304;11.902;2023-04-24T12:29:56;2.67;;;1.37;;
8927;SDS011;4499;48.304;11.902;2023-04-24T12:32:26;4.17;;;1.40;;
8927;SDS011;4499;48.304;11.902;2023-04-24T12:34:54;2.60;;;1.40;;
8927;SDS011;4499;48.304;11.902;2023-04-24T12:37:23;2.00;;;1.30;;
8927;SDS011;4499;48.304;11.902;2023-04-24T12:39:59;2.40;;;1.30;;
8927;SDS011;4499;48.304;11.902;2023-04-24T12:42:30;1.63;;;1.13;;
8927;SDS011;4499;48.304;11.902;2023-04-24T12:44:59;3.77;;;1.50;;
8927;SDS011;4499;48.304;11.902;2023-04-24T12:47:28;1.97;;;1.20;;
8927;SDS011;4499;48.304;11.902;2023-04-24T12:49:57;1.63;;;1.10;;
8927;SDS011;4499;48.304;11.902;2023-04-24T12:52:26;1.20;;;1.10;;
8927;SDS011;4499;48.304;11.902;2023-04-24T12:54:57;1.53;;;0.93;;
8927;SDS011;4499;48.304;11.902;2023-04-24T12:57:27;2.80;;;1.20;;
8927;SDS011;4499;48.304;11.902;2023-04-24T12:59:57;1.47;;;1.00;;
8927;SDS011;4499;48.304;11.902;2023-04-24T13:02:26;1.43;;;1.10;;
8927;SDS011;4499;48.304;11.902;2023-04-24T13:04:56;3.20;;;1.33;;
8927;SDS011;4499;48.304;11.902;2023-04-24T13:07:25;3.00;;;1.27;;
8927;SDS011;4499;48.304;11.902;2023-04-24T13:09:55;1.00;;;0.90;;
8927;SDS011;4499;48.304;11.902;2023-04-24T13:12:23;1.53;;;1.10;;
8927;SDS011;4499;48.304;11.902;2023-04-24T13:14:54;2.43;;;1.30;;
8927;SDS011;4499;48.304;11.902;2023-04-24T13:17:22;2.07;;;1.20;;
8927;SDS011;4499;48.304;11.902;2023-04-24T13:19:51;1.77;;;1.20;;
8927;SDS011;4499;48.304;11.902;2023-04-24T13:22:22;2.27;;;1.50;;
8927;SDS011;4499;48.304;11.902;2023-04-24T13:24:50;2.30;;;1.10;;
8927;SDS011;4499;48.304;11.902;2023-04-24T13:27:18;2.13;;;1.60;;
8927;SDS011;4499;48.304;11.902;2023-04-24T13:29:46;2.57;;;1.40;;
8927;SDS011;4499;48.304;11.902;2023-04-24T13:32:16;4.70;;;1.50;;
8927;SDS011;4499;48.304;11.902;2023-04-24T13:34:45;3.97;;;1.60;;
8927;SDS011;4499;48.304;11.902;2023-04-24T13:37:13;1.13;;;1.00;;
8927;SDS011;4499;48.304;11.902;2023-04-24T13:39:41;2.93;;;1.20;;
8927;SDS011;4499;48.304;11.902;2023-04-24T13:42:09;1.90;;;1.10;;
8927;SDS011;4499;48.304;11.902;2023-04-24T13:44:38;3.07;;;1.13;;
8927;SDS011;4499;48.304;11.902;2023-04-24T13:47:07;2.10;;;1.23;;
8927;SDS011;4499;48.304;11.902;2023-04-24T13:49:37;1.37;;;1.20;;
8927;SDS011;4499;48.304;11.902;2023-04-24T13:52:05;2.27;;;1.20;;
8927;SDS011;4499;48.304;11.902;2023-04-24T13:54:33;3.03;;;1.00;;
8927;SDS011;4499;48.304;11.902;2023-04-24T13:57:02;1.40;;;1.23;;
8927;SDS011;4499;48.304;11.902;2023-04-24T13:59:30;3.90;;;1.20;;
8927;SDS011;4499;48.304;11.902;2023-04-24T14:01:58;1.90;;;1.10;;
8927;SDS011;4499;48.304;11.902;2023-04-24T14:04:27;1.30;;;1.17;;
8927;SDS011;4499;48.304;11.902;2023-04-24T14:06:56;1.90;;;1.10;;
8927;SDS011;4499;48.304;11.902;2023-04-24T14:09:24;3.80;;;1.47;;
8927;SDS011;4499;48.304;11.902;2023-04-24T14:11:53;2.57;;;1.27;;
8927;SDS011;4499;48.304;11.902;2023-04-24T14:14:21;1.63;;;1.23;;
8927;SDS011;4499;48.304;11.902;2023-04-24T14:16:50;1.97;;;1.30;;
8927;SDS011;4499;48.304;11.902;2023-04-24T14:19:18;1.20;;;1.10;;
8927;SDS011;4499;48.304;11.902;2023-04-24T14:21:47;2.23;;;1.20;;
8927;SDS011;4499;48.304;11.902;2023-04-24T14:24:16;1.97;;;1.47;;
8927;SDS011;4499;48.304;11.902;2023-04-24T14:26:44;2.13;;;1.27;;
8927;SDS011;4499;48.304;11.902;2023-04-24T14:29:12;2.60;;;1.40;;
8927;SDS011;4499;48.304;11.902;2023-04-24T14:31:41;1.47;;;1.20;;
8927;SDS011;4499;48.304;11.902;2023-04-24T14:34:10;1.43;;;1.10;;
8927;SDS011;4499;48.304;11.902;2023-04-24T14:36:38;2.13;;;1.50;;
8927;SDS011;4499;48.304;11.902;2023-04-24T14:39:06;3.00;;;1.20;;
8927;SDS011;4499;48.304;11.902;2023-04-24T14:41:36;3.17;;;1.60;;
8927;SDS011;4499;48.304;11.902;2023-04-24T14:44:05;3.07;;;1.60;;
8927;SDS011;4499;48.304;11.902;2023-04-24T14:46:33;10.63;;;1.60;;
8927;SDS011;4499;48.304;11.902;2023-04-24T14:49:02;1.77;;;1.23;;
8927;SDS011;4499;48.304;11.902;2023-04-24T14:51:30;3.13;;;1.33;;
8927;SDS011;4499;48.304;11.902;2023-04-24T14:53:58;2.20;;;1.27;;
8927;SDS011;4499;48.304;11.902;2023-04-24T14:56:26;1.73;;;1.30;;
8927;SDS011;4499;48.304;11.902;2023-04-24T14:58:56;3.03;;;1.20;;
8927;SDS011;4499;48.304;11.902;2023-04-24T15:01:24;1.80;;;1.20;;
8927;SDS011;4499;48.304;11.902;2023-04-24T15:03:53;3.17;;;1.50;;
8927;SDS011;4499;48.304;11.902;2023-04-24T15:06:21;2.30;;;1.50;;
8927;SDS011;4499;48.304;11.902;2023-04-24T15:08:49;2.10;;;1.20;;
8927;SDS011;4499;48.304;11.902;2023-04-24T15:11:17;1.87;;;1.30;;
8927;SDS011;4499;48.304;11.902;2023-04-24T15:13:46;2.30;;;1.03;;
8927;SDS011;4499;48.304;11.902;2023-04-24T15:16:15;1.43;;;1.13;;
8927;SDS011;4499;48.304;11.902;2023-04-24T15:18:44;1.20;;;1.10;;